createdAt,value
2017-11-11T00:00:13.387Z,62.80
2017-11-11T00:01:18.988Z,62.80
2017-11-11T00:02:23.895Z,62.70
2017-11-11T00:03:28.943Z,62.70
2017-11-11T00:04:34.097Z,62.80
2017-11-11T00:05:39.176Z,62.70
2017-11-11T00:06:44.354Z,62.70
2017-11-11T00:07:49.580Z,62.70
2017-11-11T00:08:55.125Z,62.60
2017-11-11T00:10:00.734Z,62.60
2017-11-11T00:11:05.990Z,62.60
2017-11-11T00:12:11.078Z,62.50
2017-11-11T00:13:16.049Z,62.50
2017-11-11T00:14:21.359Z,62.50
2017-11-11T00:15:26.803Z,62.40
2017-11-11T00:16:31.801Z,62.50
2017-11-11T00:17:36.892Z,62.40
2017-11-11T00:18:43.140Z,62.40
2017-11-11T00:19:48.605Z,62.40
2017-11-11T00:20:53.701Z,62.30
2017-11-11T00:21:58.783Z,62.90
2017-11-11T00:23:04.071Z,62.40
2017-11-11T00:24:09.426Z,62.30
2017-11-11T00:25:14.418Z,62.20
2017-11-11T00:26:19.690Z,62.30
2017-11-11T00:27:24.665Z,62.20
2017-11-11T00:28:29.707Z,62.20
2017-11-11T00:29:34.982Z,62.20
2017-11-11T00:30:39.960Z,62.20
2017-11-11T00:31:44.565Z,62.20
2017-11-11T00:32:49.150Z,62.20
2017-11-11T00:33:53.901Z,62.20
2017-11-11T00:34:58.544Z,62.10
2017-11-11T00:36:03.109Z,62.20
2017-11-11T00:37:07.730Z,62.10
2017-11-11T00:38:12.345Z,62.10
2017-11-11T00:39:16.915Z,62.10
2017-11-11T00:40:21.652Z,62.10
2017-11-11T00:41:26.362Z,62.10
2017-11-11T00:42:30.963Z,62.10
2017-11-11T00:43:35.564Z,62.10
2017-11-11T00:44:40.279Z,62.10
2017-11-11T00:45:44.882Z,62.10
2017-11-11T00:46:49.691Z,62.10
2017-11-11T00:47:54.317Z,62.10
2017-11-11T00:48:59.045Z,62.10
2017-11-11T00:50:03.725Z,62.10
2017-11-11T00:51:08.546Z,62.10
2017-11-11T00:52:13.260Z,62.10
2017-11-11T00:53:17.853Z,62.00
2017-11-11T00:54:22.501Z,62.10
2017-11-11T00:55:27.222Z,62.00
2017-11-11T00:56:31.922Z,61.90
2017-11-11T00:57:36.596Z,62.00
2017-11-11T00:58:41.215Z,62.00
2017-11-11T00:59:45.864Z,61.90
2017-11-11T01:00:50.569Z,62.00
2017-11-11T01:01:55.248Z,61.90
2017-11-11T01:02:59.820Z,61.90
2017-11-11T01:04:04.566Z,61.90
2017-11-11T01:05:09.166Z,61.80
2017-11-11T01:06:13.854Z,61.80
2017-11-11T01:07:18.526Z,61.80
2017-11-11T01:08:23.117Z,61.80
2017-11-11T01:09:27.700Z,61.80
2017-11-11T01:10:32.302Z,61.80
2017-11-11T01:11:36.986Z,61.80
2017-11-11T01:12:41.678Z,61.80
2017-11-11T01:13:46.251Z,61.80
2017-11-11T01:14:50.952Z,61.80
2017-11-11T01:15:55.639Z,61.80
2017-11-11T01:17:00.271Z,61.70
2017-11-11T01:18:05.107Z,61.70
2017-11-11T01:19:09.716Z,61.80
2017-11-11T01:20:14.438Z,61.70
2017-11-11T01:21:19.092Z,61.70
2017-11-11T01:22:23.738Z,61.70
2017-11-11T01:23:28.490Z,61.70
2017-11-11T01:24:33.204Z,61.70
2017-11-11T01:25:37.878Z,61.70
2017-11-11T01:26:42.521Z,61.70
2017-11-11T01:27:47.311Z,61.70
2017-11-11T01:28:52.627Z,61.60
2017-11-11T01:29:57.430Z,61.60
2017-11-11T01:31:02.063Z,61.60
2017-11-11T01:32:06.620Z,61.60
2017-11-11T01:33:11.386Z,61.60
2017-11-11T01:34:15.994Z,61.50
2017-11-11T01:35:20.713Z,61.60
2017-11-11T01:36:25.499Z,61.60
2017-11-11T01:37:30.035Z,61.50
2017-11-11T01:38:34.691Z,61.50
2017-11-11T01:39:39.365Z,61.70
2017-11-11T01:40:44.066Z,61.50
2017-11-11T01:41:48.745Z,61.50
2017-11-11T01:42:53.472Z,61.50
2017-11-11T01:43:58.169Z,61.50
2017-11-11T01:45:02.761Z,61.50
2017-11-11T01:46:07.568Z,61.50
2017-11-11T01:47:12.170Z,61.50
2017-11-11T01:48:16.868Z,61.50
2017-11-11T01:49:21.600Z,61.40
2017-11-11T01:50:26.201Z,61.40
2017-11-11T01:51:31.041Z,61.40
2017-11-11T01:52:35.763Z,61.40
2017-11-11T01:53:40.531Z,61.30
2017-11-11T01:54:45.263Z,61.30
2017-11-11T01:55:49.908Z,61.30
2017-11-11T01:56:54.574Z,61.30
2017-11-11T01:57:59.364Z,61.30
2017-11-11T01:59:04.006Z,61.30
2017-11-11T02:00:08.759Z,61.30
2017-11-11T02:01:13.574Z,61.30
2017-11-11T02:02:18.131Z,61.30
2017-11-11T02:03:22.848Z,61.20
2017-11-11T02:04:27.530Z,61.20
2017-11-11T02:05:32.094Z,61.20
2017-11-11T02:06:36.713Z,61.20
2017-11-11T02:07:41.264Z,61.20
2017-11-11T02:08:45.826Z,61.20
2017-11-11T02:09:50.529Z,61.20
2017-11-11T02:10:55.241Z,61.20
2017-11-11T02:11:59.980Z,61.20
2017-11-11T02:13:04.654Z,61.10
2017-11-11T02:14:09.347Z,61.10
2017-11-11T02:15:14.138Z,61.80
2017-11-11T02:16:18.857Z,61.10
2017-11-11T02:17:23.568Z,61.10
2017-11-11T02:18:28.342Z,61.10
2017-11-11T02:19:32.935Z,61.10
2017-11-11T02:20:37.479Z,61.10
2017-11-11T02:21:42.160Z,61.10
2017-11-11T02:22:46.764Z,61.10
2017-11-11T02:23:51.349Z,61.10
2017-11-11T02:24:55.887Z,61.20
2017-11-11T02:26:12.602Z,61.10
2017-11-11T02:27:17.237Z,61.10
2017-11-11T02:28:22.346Z,61.10
2017-11-11T02:29:27.239Z,61.10
2017-11-11T02:30:31.962Z,61.10
2017-11-11T02:31:36.622Z,61.10
2017-11-11T02:32:41.400Z,61.10
2017-11-11T02:33:46.061Z,61.10
2017-11-11T02:34:50.906Z,61.10
2017-11-11T02:35:55.562Z,61.10
2017-11-11T02:37:00.286Z,61.10
2017-11-11T02:38:04.902Z,61.10
2017-11-11T02:39:09.588Z,61.10
2017-11-11T02:40:14.190Z,61.00
2017-11-11T02:41:18.909Z,61.00
2017-11-11T02:42:23.618Z,61.10
2017-11-11T02:43:28.329Z,61.00
2017-11-11T02:44:32.980Z,61.00
2017-11-11T02:45:37.573Z,61.00
2017-11-11T02:46:42.102Z,61.00
2017-11-11T02:47:46.730Z,61.00
2017-11-11T02:48:51.431Z,60.90
2017-11-11T02:49:56.183Z,61.00
2017-11-11T02:51:00.912Z,60.90
2017-11-11T02:52:05.618Z,60.90
2017-11-11T02:53:10.365Z,61.00
2017-11-11T02:54:14.946Z,61.00
2017-11-11T02:55:19.580Z,60.80
2017-11-11T02:56:24.369Z,60.90
2017-11-11T02:57:29.069Z,60.80
2017-11-11T02:58:33.825Z,60.90
2017-11-11T02:59:38.576Z,60.80
2017-11-11T03:00:43.104Z,60.80
2017-11-11T03:01:47.873Z,60.90
2017-11-11T03:02:52.623Z,60.80
2017-11-11T03:03:57.306Z,60.80
2017-11-11T03:05:02.042Z,61.50
2017-11-11T03:06:06.632Z,60.90
2017-11-11T03:07:11.225Z,60.90
2017-11-11T03:08:15.808Z,60.90
2017-11-11T03:09:20.568Z,60.90
2017-11-11T03:10:25.156Z,60.80
2017-11-11T03:11:29.976Z,60.90
2017-11-11T03:12:34.742Z,60.80
2017-11-11T03:13:39.470Z,60.80
2017-11-11T03:14:44.230Z,60.80
2017-11-11T03:15:51.681Z,60.70
2017-11-11T03:16:56.290Z,60.80
2017-11-11T03:18:01.042Z,60.80
2017-11-11T03:19:05.789Z,60.80
2017-11-11T03:20:10.518Z,60.70
2017-11-11T03:21:15.077Z,60.70
2017-11-11T03:22:19.678Z,60.70
2017-11-11T03:23:24.220Z,60.70
2017-11-11T03:24:28.866Z,60.70
2017-11-11T03:25:33.525Z,60.70
2017-11-11T03:26:38.252Z,60.60
2017-11-11T03:27:43.021Z,60.70
2017-11-11T03:28:47.550Z,60.60
2017-11-11T03:29:52.177Z,60.60
2017-11-11T03:30:56.867Z,60.60
2017-11-11T03:32:01.449Z,60.60
2017-11-11T03:33:06.178Z,60.60
2017-11-11T03:34:10.790Z,60.70
2017-11-11T03:35:15.514Z,60.50
2017-11-11T03:36:20.238Z,60.50
2017-11-11T03:37:24.837Z,60.60
2017-11-11T03:38:29.701Z,60.50
2017-11-11T03:39:34.443Z,60.50
2017-11-11T03:40:39.174Z,60.60
2017-11-11T03:41:43.758Z,60.60
2017-11-11T03:42:48.538Z,60.60
2017-11-11T03:43:53.261Z,60.60
2017-11-11T03:44:58.075Z,60.50
2017-11-11T03:46:02.865Z,60.60
2017-11-11T03:47:07.479Z,61.30
2017-11-11T03:48:12.126Z,60.50
2017-11-11T03:49:16.916Z,60.50
2017-11-11T03:50:21.512Z,60.50
2017-11-11T03:51:26.090Z,60.50
2017-11-11T03:52:30.858Z,60.50
2017-11-11T03:53:35.490Z,60.50
2017-11-11T03:54:40.197Z,60.40
2017-11-11T03:55:44.767Z,60.40
2017-11-11T03:56:49.324Z,60.40
2017-11-11T03:57:53.874Z,60.50
2017-11-11T03:58:58.660Z,60.40
2017-11-11T04:00:03.286Z,60.50
2017-11-11T04:01:07.987Z,60.40
2017-11-11T04:02:12.740Z,60.40
2017-11-11T04:03:17.499Z,60.40
2017-11-11T04:04:22.074Z,60.50
2017-11-11T04:05:26.791Z,60.40
2017-11-11T04:06:31.473Z,60.40
2017-11-11T04:07:36.251Z,60.40
2017-11-11T04:08:40.992Z,60.40
2017-11-11T04:09:45.717Z,61.10
2017-11-11T04:10:50.369Z,60.40
2017-11-11T04:11:55.080Z,60.40
2017-11-11T04:12:59.675Z,60.40
2017-11-11T04:14:04.563Z,60.40
2017-11-11T04:15:09.156Z,60.40
2017-11-11T04:16:13.973Z,60.30
2017-11-11T04:17:18.535Z,60.40
2017-11-11T04:18:23.311Z,60.40
2017-11-11T04:19:27.919Z,60.30
2017-11-11T04:20:32.757Z,60.40
2017-11-11T04:21:37.609Z,60.40
2017-11-11T04:22:42.647Z,60.40
2017-11-11T04:23:47.833Z,60.40
2017-11-11T04:24:52.866Z,60.40
2017-11-11T04:25:57.940Z,60.50
2017-11-11T04:27:03.770Z,60.50
2017-11-11T04:28:08.865Z,60.60
2017-11-11T04:29:14.400Z,60.70
2017-11-11T04:30:19.568Z,60.70
2017-11-11T04:31:24.508Z,60.70
2017-11-11T04:32:29.497Z,60.70
2017-11-11T04:33:34.532Z,60.80
2017-11-11T04:34:39.684Z,60.80
2017-11-11T04:35:44.601Z,60.80
2017-11-11T04:36:49.621Z,60.80
2017-11-11T04:37:54.530Z,60.80
2017-11-11T04:38:59.668Z,60.90
2017-11-11T04:40:04.748Z,61.00
2017-11-11T04:41:09.940Z,61.00
2017-11-11T04:42:14.756Z,61.00
2017-11-11T04:43:20.588Z,61.00
2017-11-11T04:44:25.419Z,61.10
2017-11-11T04:45:30.852Z,61.20
2017-11-11T04:46:35.767Z,61.10
2017-11-11T04:47:41.402Z,61.20
2017-11-11T04:48:46.348Z,61.20
2017-11-11T04:49:51.353Z,61.10
2017-11-11T04:50:56.478Z,61.20
2017-11-11T04:52:01.409Z,61.20
2017-11-11T04:53:06.481Z,61.20
2017-11-11T04:54:11.401Z,61.20
2017-11-11T04:55:17.193Z,61.20
2017-11-11T04:56:22.085Z,61.20
2017-11-11T04:57:27.096Z,61.40
2017-11-11T04:58:31.921Z,61.10
2017-11-11T04:59:36.861Z,61.10
2017-11-11T05:00:41.852Z,61.10
2017-11-11T05:01:46.731Z,61.20
2017-11-11T05:02:51.612Z,61.20
2017-11-11T05:03:56.548Z,61.20
2017-11-11T05:05:01.501Z,61.10
2017-11-11T05:06:06.777Z,61.80
2017-11-11T05:07:11.658Z,61.10
2017-11-11T05:08:16.382Z,61.10
2017-11-11T05:09:21.186Z,61.10
2017-11-11T05:10:26.258Z,61.10
2017-11-11T05:11:31.583Z,61.00
2017-11-11T05:12:36.526Z,61.10
2017-11-11T05:13:41.551Z,61.10
2017-11-11T05:14:46.562Z,61.00
2017-11-11T05:15:51.437Z,61.10
2017-11-11T05:16:56.422Z,61.00
2017-11-11T05:18:01.388Z,61.00
2017-11-11T05:19:06.296Z,61.10
2017-11-11T05:20:11.329Z,61.60
2017-11-11T05:21:16.653Z,60.90
2017-11-11T05:22:21.544Z,60.80
2017-11-11T05:23:26.405Z,61.50
2017-11-11T05:24:31.463Z,60.80
2017-11-11T05:25:36.418Z,60.80
2017-11-11T05:26:41.471Z,60.70
2017-11-11T05:27:46.514Z,60.80
2017-11-11T05:28:51.728Z,60.70
2017-11-11T05:29:56.918Z,60.60
2017-11-11T05:31:02.077Z,60.60
2017-11-11T05:32:07.105Z,60.50
2017-11-11T05:33:11.986Z,60.50
2017-11-11T05:34:16.868Z,60.40
2017-11-11T05:35:21.909Z,60.50
2017-11-11T05:36:26.945Z,60.40
2017-11-11T05:37:31.986Z,60.40
2017-11-11T05:38:36.909Z,60.30
2017-11-11T05:39:41.934Z,60.30
2017-11-11T05:40:46.767Z,60.20
2017-11-11T05:41:51.537Z,60.20
2017-11-11T05:42:56.605Z,60.10
2017-11-11T05:44:01.834Z,60.20
2017-11-11T05:45:06.957Z,60.10
2017-11-11T05:46:12.060Z,60.10
2017-11-11T05:47:17.220Z,60.10
2017-11-11T05:48:22.170Z,60.00
2017-11-11T05:49:27.225Z,60.00
2017-11-11T05:50:32.221Z,60.00
2017-11-11T05:51:37.216Z,59.90
2017-11-11T05:52:42.134Z,59.90
2017-11-11T05:53:47.127Z,60.00
2017-11-11T05:54:52.061Z,59.90
2017-11-11T05:55:57.138Z,59.90
2017-11-11T05:57:02.295Z,59.80
2017-11-11T05:58:07.369Z,59.80
2017-11-11T05:59:12.606Z,59.80
2017-11-11T06:00:17.585Z,60.00
2017-11-11T06:01:22.503Z,60.00
2017-11-11T06:02:27.566Z,59.70
2017-11-11T06:03:32.623Z,59.60
2017-11-11T06:04:37.787Z,59.40
2017-11-11T06:05:42.874Z,59.40
2017-11-11T06:06:47.960Z,59.50
2017-11-11T06:07:52.996Z,59.30
2017-11-11T06:08:58.039Z,59.30
2017-11-11T06:10:03.016Z,59.10
2017-11-11T06:11:08.155Z,59.20
2017-11-11T06:12:13.107Z,59.20
2017-11-11T06:13:18.044Z,59.20
2017-11-11T06:14:24.175Z,59.20
2017-11-11T06:15:29.251Z,59.20
2017-11-11T06:16:34.791Z,59.60
2017-11-11T06:17:39.796Z,59.50
2017-11-11T06:18:44.639Z,59.40
2017-11-11T06:19:49.455Z,59.40
2017-11-11T06:20:54.520Z,59.30
2017-11-11T06:21:59.565Z,59.30
2017-11-11T06:23:04.637Z,59.40
2017-11-11T06:24:09.884Z,59.30
2017-11-11T06:25:14.873Z,59.40
2017-11-11T06:26:19.949Z,59.10
2017-11-11T06:27:24.780Z,58.90
2017-11-11T06:28:29.661Z,58.80
2017-11-11T06:29:34.796Z,58.90
2017-11-11T06:30:39.960Z,58.70
2017-11-11T06:31:45.583Z,58.60
2017-11-11T06:32:51.137Z,58.30
2017-11-11T06:33:56.152Z,57.90
2017-11-11T06:35:01.793Z,57.50
2017-11-11T06:36:06.967Z,57.20
2017-11-11T06:37:12.093Z,57.00
2017-11-11T06:38:17.163Z,56.80
2017-11-11T06:39:22.232Z,56.70
2017-11-11T06:40:27.355Z,56.70
2017-11-11T06:41:32.435Z,56.70
2017-11-11T06:42:37.444Z,56.60
2017-11-11T06:43:42.250Z,56.60
2017-11-11T06:44:47.354Z,56.70
2017-11-11T06:45:52.390Z,56.70
2017-11-11T06:46:57.237Z,56.70
2017-11-11T06:48:02.364Z,56.80
2017-11-11T06:49:07.367Z,56.90
2017-11-11T06:50:12.300Z,56.90
2017-11-11T06:51:17.332Z,57.00
2017-11-11T06:52:22.472Z,57.00
2017-11-11T06:53:27.509Z,56.90
2017-11-11T06:54:32.472Z,56.80
2017-11-11T06:55:37.354Z,56.70
2017-11-11T06:56:42.380Z,56.60
2017-11-11T06:57:48.188Z,56.50
2017-11-11T06:58:53.242Z,56.50
2017-11-11T06:59:58.181Z,56.50
2017-11-11T07:01:03.444Z,56.60
2017-11-11T07:02:08.513Z,56.60
2017-11-11T07:03:13.533Z,56.70
2017-11-11T07:04:18.544Z,56.80
2017-11-11T07:05:23.569Z,56.90
2017-11-11T07:06:28.788Z,56.80
2017-11-11T07:07:33.973Z,56.90
2017-11-11T07:08:39.136Z,57.00
2017-11-11T07:09:47.393Z,57.00
2017-11-11T07:10:52.587Z,57.00
2017-11-11T07:11:57.522Z,57.10
2017-11-11T07:13:02.724Z,57.00
2017-11-11T07:14:07.888Z,57.00
2017-11-11T07:15:13.085Z,57.00
2017-11-11T07:16:18.239Z,57.10
2017-11-11T07:17:23.284Z,57.10
2017-11-11T07:18:29.068Z,57.10
2017-11-11T07:19:34.913Z,57.30
2017-11-11T07:20:42.190Z,57.30
2017-11-11T07:21:47.926Z,57.20
2017-11-11T07:22:55.651Z,57.30
2017-11-11T07:24:00.745Z,57.30
2017-11-11T07:25:06.618Z,57.30
2017-11-11T07:26:12.384Z,57.30
2017-11-11T07:27:18.710Z,57.40
2017-11-11T07:28:24.165Z,57.40
2017-11-11T07:29:29.271Z,57.60
2017-11-11T07:30:34.500Z,57.50
2017-11-11T07:31:39.801Z,57.50
2017-11-11T07:32:45.043Z,57.60
2017-11-11T07:33:50.035Z,57.70
2017-11-11T07:34:55.254Z,57.80
2017-11-11T07:36:00.428Z,57.80
2017-11-11T07:37:05.840Z,57.90
2017-11-11T07:38:11.056Z,57.90
2017-11-11T07:39:16.227Z,58.00
2017-11-11T07:40:21.339Z,58.00
2017-11-11T07:41:26.375Z,58.10
2017-11-11T07:42:31.304Z,58.20
2017-11-11T07:43:36.476Z,58.20
2017-11-11T07:44:41.732Z,58.30
2017-11-11T07:45:46.946Z,58.30
2017-11-11T07:46:52.106Z,58.30
2017-11-11T07:47:57.419Z,58.40
2017-11-11T07:49:02.505Z,58.40
2017-11-11T07:50:07.505Z,58.50
2017-11-11T07:51:12.995Z,58.50
2017-11-11T07:52:18.085Z,58.70
2017-11-11T07:53:23.308Z,58.70
2017-11-11T07:54:28.519Z,58.70
2017-11-11T07:55:33.642Z,59.00
2017-11-11T07:56:38.943Z,58.90
2017-11-11T07:57:43.868Z,58.90
2017-11-11T07:58:49.155Z,58.80
2017-11-11T07:59:54.146Z,58.60
2017-11-11T08:00:59.148Z,58.50
2017-11-11T08:02:04.192Z,58.60
2017-11-11T08:03:09.216Z,58.70
2017-11-11T08:04:14.237Z,58.90
2017-11-11T08:05:19.425Z,59.10
2017-11-11T08:06:24.496Z,59.00
2017-11-11T08:07:29.456Z,59.20
2017-11-11T08:08:34.651Z,59.30
2017-11-11T08:09:39.605Z,59.20
2017-11-11T08:10:44.630Z,59.30
2017-11-11T08:11:49.682Z,59.40
2017-11-11T08:12:55.027Z,59.50
2017-11-11T08:14:01.008Z,59.50
2017-11-11T08:15:06.114Z,59.50
2017-11-11T08:16:12.222Z,59.60
2017-11-11T08:17:17.221Z,59.60
2017-11-11T08:18:22.342Z,59.40
2017-11-11T08:19:27.436Z,59.20
2017-11-11T08:20:32.548Z,59.10
2017-11-11T08:21:37.933Z,59.10
2017-11-11T08:22:42.897Z,59.40
2017-11-11T08:23:47.871Z,59.50
2017-11-11T08:24:52.794Z,59.40
2017-11-11T08:25:57.999Z,59.50
2017-11-11T08:27:03.399Z,59.50
2017-11-11T08:28:08.638Z,59.50
2017-11-11T08:29:14.059Z,59.40
2017-11-11T08:30:19.103Z,59.30
2017-11-11T08:31:24.069Z,59.00
2017-11-11T08:32:29.276Z,58.80
2017-11-11T08:33:34.495Z,58.80
2017-11-11T08:34:39.733Z,59.00
2017-11-11T08:35:45.070Z,59.00
2017-11-11T08:36:51.519Z,58.90
2017-11-11T08:37:57.588Z,59.10
2017-11-11T08:39:02.888Z,59.20
2017-11-11T08:40:08.347Z,59.00
2017-11-11T08:41:13.779Z,59.10
2017-11-11T08:42:19.044Z,59.10
2017-11-11T08:43:24.157Z,59.30
2017-11-11T08:44:29.446Z,59.30
2017-11-11T08:45:34.789Z,59.30
2017-11-11T08:46:40.209Z,59.40
2017-11-11T08:47:46.227Z,59.50
2017-11-11T08:48:52.256Z,59.80
2017-11-11T08:49:58.469Z,59.90
2017-11-11T08:51:03.687Z,60.00
2017-11-11T08:52:08.870Z,60.20
2017-11-11T08:53:14.089Z,60.40
2017-11-11T08:54:19.353Z,60.60
2017-11-11T08:55:24.540Z,60.80
2017-11-11T08:56:29.857Z,60.90
2017-11-11T08:57:35.430Z,60.90
2017-11-11T08:58:40.747Z,61.00
2017-11-11T08:59:46.120Z,61.10
2017-11-11T09:00:51.374Z,61.10
2017-11-11T09:01:56.700Z,61.30
2017-11-11T09:03:02.307Z,61.50
2017-11-11T09:04:08.237Z,61.60
2017-11-11T09:05:13.849Z,61.80
2017-11-11T09:06:19.478Z,61.70
2017-11-11T09:07:24.594Z,61.70
2017-11-11T09:08:30.242Z,61.60
2017-11-11T09:09:35.648Z,61.70
2017-11-11T09:10:41.248Z,61.90
2017-11-11T09:11:46.672Z,61.90
2017-11-11T09:12:52.150Z,61.90
2017-11-11T09:13:57.434Z,61.90
2017-11-11T09:15:03.145Z,62.00
2017-11-11T09:16:08.275Z,61.90
2017-11-11T09:17:13.524Z,61.90
2017-11-11T09:18:18.903Z,61.90
2017-11-11T09:19:24.048Z,62.00
2017-11-11T09:20:29.391Z,62.00
2017-11-11T09:21:34.341Z,62.00
2017-11-11T09:22:39.730Z,62.00
2017-11-11T09:23:45.175Z,62.00
2017-11-11T09:24:50.365Z,62.10
2017-11-11T09:25:55.470Z,62.20
2017-11-11T09:27:00.546Z,62.20
2017-11-11T09:28:06.099Z,62.30
2017-11-11T09:29:11.172Z,62.40
2017-11-11T09:30:16.963Z,62.40
2017-11-11T09:31:22.002Z,62.40
2017-11-11T09:32:27.034Z,62.40
2017-11-11T09:33:32.226Z,62.30
2017-11-11T09:34:37.365Z,62.40
2017-11-11T09:35:42.488Z,62.40
2017-11-11T09:36:49.241Z,62.40
2017-11-11T09:37:54.726Z,62.40
2017-11-11T09:39:01.223Z,62.40
2017-11-11T09:40:06.556Z,62.50
2017-11-11T09:41:11.725Z,62.40
2017-11-11T09:42:17.280Z,62.50
2017-11-11T09:43:22.424Z,62.50
2017-11-11T09:44:27.979Z,62.50
2017-11-11T09:45:33.259Z,62.50
2017-11-11T09:46:38.891Z,62.50
2017-11-11T09:47:44.430Z,62.60
2017-11-11T09:48:49.697Z,62.60
2017-11-11T09:49:55.366Z,62.60
2017-11-11T09:51:00.826Z,62.60
2017-11-11T09:52:06.915Z,62.70
2017-11-11T09:53:13.018Z,62.80
2017-11-11T09:54:19.599Z,62.80
2017-11-11T09:55:24.743Z,62.90
2017-11-11T09:56:30.077Z,62.90
2017-11-11T09:57:35.605Z,62.80
2017-11-11T09:58:41.205Z,62.90
2017-11-11T09:59:46.761Z,62.90
2017-11-11T10:00:52.022Z,63.00
2017-11-11T10:01:57.440Z,63.10
2017-11-11T10:03:02.770Z,63.20
2017-11-11T10:04:08.001Z,63.20
2017-11-11T10:05:13.473Z,63.30
2017-11-11T10:06:18.685Z,63.20
2017-11-11T10:07:24.199Z,63.10
2017-11-11T10:08:30.392Z,63.10
2017-11-11T10:09:35.694Z,63.00
2017-11-11T10:10:41.607Z,63.00
2017-11-11T10:11:46.700Z,62.90
2017-11-11T10:12:51.996Z,62.80
2017-11-11T10:13:57.066Z,62.80
2017-11-11T10:15:02.310Z,62.80
2017-11-11T10:16:07.747Z,62.80
2017-11-11T10:17:13.325Z,62.70
2017-11-11T10:18:18.739Z,62.70
2017-11-11T10:19:24.077Z,62.70
2017-11-11T10:20:29.252Z,62.70
2017-11-11T10:21:35.166Z,62.70
2017-11-11T10:22:40.623Z,62.70
2017-11-11T10:23:45.857Z,63.40
2017-11-11T10:24:51.127Z,62.70
2017-11-11T10:25:57.050Z,62.70
2017-11-11T10:27:02.693Z,62.60
2017-11-11T10:28:08.186Z,62.60
2017-11-11T10:29:13.355Z,62.60
2017-11-11T10:30:18.503Z,62.50
2017-11-11T10:31:23.531Z,62.50
2017-11-11T10:32:28.781Z,62.40
2017-11-11T10:33:34.284Z,62.50
2017-11-11T10:34:39.557Z,62.50
2017-11-11T10:35:44.981Z,62.40
2017-11-11T10:36:49.980Z,62.50
2017-11-11T10:37:55.272Z,62.40
2017-11-11T10:39:00.192Z,62.40
2017-11-11T10:40:05.223Z,62.40
2017-11-11T10:41:11.389Z,62.50
2017-11-11T10:42:16.616Z,62.30
2017-11-11T10:43:22.910Z,62.50
2017-11-11T10:44:28.173Z,62.40
2017-11-11T10:45:33.563Z,62.50
2017-11-11T10:46:39.055Z,62.50
2017-11-11T10:47:44.372Z,62.40
2017-11-11T10:48:51.471Z,62.30
2017-11-11T10:49:56.995Z,62.40
2017-11-11T10:51:02.386Z,62.40
2017-11-11T10:52:07.934Z,62.40
2017-11-11T10:53:13.285Z,62.30
2017-11-11T10:54:19.363Z,62.40
2017-11-11T10:55:24.928Z,62.40
2017-11-11T10:56:30.544Z,62.50
2017-11-11T10:57:36.317Z,62.70
2017-11-11T10:58:42.638Z,62.90
2017-11-11T10:59:47.964Z,63.20
2017-11-11T11:00:53.143Z,64.80
2017-11-11T11:01:58.944Z,64.90
2017-11-11T11:03:04.314Z,64.60
2017-11-11T11:04:10.295Z,64.50
2017-11-11T11:05:16.605Z,64.60
2017-11-11T11:06:21.902Z,64.70
2017-11-11T11:07:27.270Z,64.70
2017-11-11T11:08:32.597Z,64.80
2017-11-11T11:09:38.132Z,64.60
2017-11-11T11:10:44.082Z,64.70
2017-11-11T11:11:50.608Z,64.80
2017-11-11T11:12:56.330Z,64.90
2017-11-11T11:14:01.802Z,64.90
2017-11-11T11:15:07.527Z,64.80
2017-11-11T11:16:13.300Z,64.90
2017-11-11T11:17:18.834Z,65.00
2017-11-11T11:18:23.975Z,64.90
2017-11-11T11:19:29.472Z,65.50
2017-11-11T11:20:34.627Z,64.90
2017-11-11T11:21:40.049Z,64.80
2017-11-11T11:22:45.090Z,64.70
2017-11-11T11:23:50.429Z,64.60
2017-11-11T11:24:55.646Z,64.50
2017-11-11T11:26:01.169Z,64.50
2017-11-11T11:27:06.351Z,64.40
2017-11-11T11:28:11.743Z,64.40
2017-11-11T11:29:17.035Z,64.30
2017-11-11T11:30:22.347Z,64.10
2017-11-11T11:31:27.432Z,64.00
2017-11-11T11:32:33.097Z,64.50
2017-11-11T11:33:38.443Z,63.60
2017-11-11T11:34:44.024Z,63.20
2017-11-11T11:35:49.966Z,61.70
2017-11-11T11:36:55.564Z,61.30
2017-11-11T11:38:00.770Z,61.00
2017-11-11T11:39:06.054Z,60.60
2017-11-11T11:40:11.485Z,60.00
2017-11-11T11:41:19.150Z,59.50
2017-11-11T11:42:24.401Z,59.10
2017-11-11T11:43:29.569Z,59.00
2017-11-11T11:44:35.102Z,58.80
2017-11-11T11:45:40.807Z,58.80
2017-11-11T11:46:46.156Z,58.60
2017-11-11T11:47:51.700Z,58.70
2017-11-11T11:48:56.976Z,58.70
2017-11-11T11:50:02.796Z,58.80
2017-11-11T11:51:08.434Z,58.90
2017-11-11T11:52:13.646Z,59.00
2017-11-11T11:53:19.447Z,58.90
2017-11-11T11:54:26.305Z,58.60
2017-11-11T11:55:31.818Z,58.60
2017-11-11T11:56:39.340Z,58.30
2017-11-11T11:57:46.071Z,58.20
2017-11-11T11:58:51.382Z,57.80
2017-11-11T11:59:56.753Z,57.60
2017-11-11T12:01:02.548Z,57.50
2017-11-11T12:02:08.010Z,57.50
2017-11-11T12:03:13.378Z,57.20
2017-11-11T12:04:19.412Z,56.90
2017-11-11T12:05:25.312Z,56.80
2017-11-11T12:06:30.779Z,56.80
2017-11-11T12:07:36.158Z,56.70
2017-11-11T12:08:41.402Z,56.70
2017-11-11T12:09:47.446Z,56.90
2017-11-11T12:10:53.053Z,56.90
2017-11-11T12:11:59.850Z,57.00
2017-11-11T12:13:06.145Z,57.10
2017-11-11T12:14:11.343Z,57.20
2017-11-11T12:15:16.570Z,57.30
2017-11-11T12:16:21.975Z,57.40
2017-11-11T12:17:27.285Z,57.50
2017-11-11T12:18:32.898Z,57.60
2017-11-11T12:19:38.106Z,57.60
2017-11-11T12:20:43.515Z,57.70
2017-11-11T12:21:49.869Z,57.70
2017-11-11T12:22:55.406Z,57.70
2017-11-11T12:24:00.757Z,57.90
2017-11-11T12:25:06.904Z,57.90
2017-11-11T12:26:12.379Z,58.00
2017-11-11T12:27:18.603Z,58.00
2017-11-11T12:28:24.211Z,58.10
2017-11-11T12:29:29.454Z,58.10
2017-11-11T12:30:35.247Z,58.10
2017-11-11T12:31:41.230Z,58.30
2017-11-11T12:32:46.556Z,58.40
2017-11-11T12:33:52.090Z,58.40
2017-11-11T12:34:57.464Z,58.40
2017-11-11T12:36:03.206Z,58.40
2017-11-11T12:37:08.872Z,58.50
2017-11-11T12:38:14.149Z,58.50
2017-11-11T12:39:22.508Z,58.60
2017-11-11T12:40:27.991Z,58.60
2017-11-11T12:41:33.258Z,58.60
2017-11-11T12:42:39.265Z,58.60
2017-11-11T12:43:44.971Z,58.70
2017-11-11T12:44:50.064Z,58.70
2017-11-11T12:45:55.616Z,58.80
2017-11-11T12:47:00.859Z,58.80
2017-11-11T12:48:06.313Z,58.80
2017-11-11T12:49:11.309Z,58.90
2017-11-11T12:50:16.452Z,59.00
2017-11-11T12:51:22.080Z,59.10
2017-11-11T12:52:27.737Z,59.10
2017-11-11T12:53:32.549Z,59.20
2017-11-11T12:54:37.288Z,59.20
2017-11-11T12:55:42.620Z,59.20
2017-11-11T12:56:48.697Z,59.10
2017-11-11T12:57:54.056Z,59.20
2017-11-11T12:58:59.507Z,59.20
2017-11-11T13:00:04.796Z,59.30
2017-11-11T13:01:10.380Z,59.30
2017-11-11T13:02:15.857Z,59.30
2017-11-11T13:03:21.275Z,59.40
2017-11-11T13:04:26.735Z,59.40
2017-11-11T13:05:31.597Z,59.40
2017-11-11T13:06:36.570Z,59.50
2017-11-11T13:07:42.077Z,59.50
2017-11-11T13:08:47.647Z,59.50
2017-11-11T13:09:53.248Z,59.50
2017-11-11T13:10:58.771Z,59.60
2017-11-11T13:12:04.395Z,59.60
2017-11-11T13:13:11.225Z,59.60
2017-11-11T13:14:16.303Z,59.60
2017-11-11T13:15:21.844Z,59.60
2017-11-11T13:16:26.976Z,59.60
2017-11-11T13:17:32.152Z,59.50
2017-11-11T13:18:37.202Z,59.50
2017-11-11T13:19:42.224Z,59.40
2017-11-11T13:20:47.491Z,59.40
2017-11-11T13:21:53.053Z,59.50
2017-11-11T13:22:57.913Z,59.60
2017-11-11T13:24:03.521Z,59.60
2017-11-11T13:25:08.779Z,59.70
2017-11-11T13:26:14.551Z,59.80
2017-11-11T13:27:20.708Z,59.80
2017-11-11T13:28:26.430Z,59.90
2017-11-11T13:29:31.816Z,59.90
2017-11-11T13:30:37.312Z,60.00
2017-11-11T13:31:43.329Z,60.00
2017-11-11T13:32:48.896Z,60.00
2017-11-11T13:33:54.019Z,60.00
2017-11-11T13:34:59.442Z,60.00
2017-11-11T13:36:04.892Z,60.10
2017-11-11T13:37:10.387Z,60.20
2017-11-11T13:38:15.244Z,60.20
2017-11-11T13:39:20.310Z,60.30
2017-11-11T13:40:25.462Z,60.40
2017-11-11T13:41:30.608Z,60.40
2017-11-11T13:42:36.170Z,60.50
2017-11-11T13:43:41.367Z,60.50
2017-11-11T13:44:46.714Z,60.50
2017-11-11T13:45:52.641Z,60.50
2017-11-11T13:46:58.154Z,60.50
2017-11-11T13:48:04.483Z,60.40
2017-11-11T13:49:09.770Z,60.40
2017-11-11T13:50:15.638Z,60.40
2017-11-11T13:51:21.254Z,60.40
2017-11-11T13:52:26.685Z,60.50
2017-11-11T13:53:33.261Z,60.40
2017-11-11T13:54:38.584Z,60.50
2017-11-11T13:55:44.183Z,60.50
2017-11-11T13:56:49.780Z,60.50
2017-11-11T13:57:55.228Z,60.50
2017-11-11T13:59:00.564Z,60.60